sensor_id;sensor_type;location;lat;lon;timestamp;temperature;humidity
13229;DHT22;6680;53.220;10.402;2022-12-18T00:00:44;-6.30;99.90
13229;DHT22;6680;53.220;10.402;2022-12-18T00:03:12;-6.30;99.90
13229;DHT22;6680;53.220;10.402;2022-12-18T00:05:46;-6.30;99.90
13229;DHT22;6680;53.220;10.402;2022-12-18T00:08:12;-6.30;99.90
13229;DHT22;6680;53.220;10.402;2022-12-18T00:10:39;-6.20;99.90
13229;DHT22;6680;53.220;10.402;2022-12-18T00:13:06;-6.20;99.90
13229;DHT22;6680;53.220;10.402;2022-12-18T00:15:34;-6.20;99.90
13229;DHT22;6680;53.220;10.402;2022-12-18T00:18:01;-6.20;99.90
13229;DHT22;6680;53.220;10.402;2022-12-18T00:20:28;-6.20;99.90
13229;DHT22;6680;53.220;10.402;2022-12-18T00:22:55;-6.20;99.90
13229;DHT22;6680;53.220;10.402;2022-12-18T00:25:21;-6.20;99.90
13229;DHT22;6680;53.220;10.402;2022-12-18T00:27:48;-6.10;99.90
13229;DHT22;6680;53.220;10.402;2022-12-18T00:30:15;-6.20;99.90
13229;DHT22;6680;53.220;10.402;2022-12-18T00:32:43;-6.20;99.90
13229;DHT22;6680;53.220;10.402;2022-12-18T00:35:10;-6.20;99.90
13229;DHT22;6680;53.220;10.402;2022-12-18T00:37:36;-6.30;99.90
13229;DHT22;6680;53.220;10.402;2022-12-18T00:40:04;-6.20;99.90
13229;DHT22;6680;53.220;10.402;2022-12-18T00:42:30;-6.30;99.90
13229;DHT22;6680;53.220;10.402;2022-12-18T00:45:15;-6.30;99.90
13229;DHT22;6680;53.220;10.402;2022-12-18T00:47:43;-6.30;99.90
13229;DHT22;6680;53.220;10.402;2022-12-18T00:50:10;-6.30;99.90
13229;DHT22;6680;53.220;10.402;2022-12-18T00:52:36;-6.30;99.90
13229;DHT22;6680;53.220;10.402;2022-12-18T00:55:04;-6.30;99.90
13229;DHT22;6680;53.220;10.402;2022-12-18T00:57:31;-6.40;99.90
13229;DHT22;6680;53.220;10.402;2022-12-18T00:59:58;-6.40;99.90
13229;DHT22;6680;53.220;10.402;2022-12-18T01:02:24;-6.40;99.90
13229;DHT22;6680;53.220;10.402;2022-12-18T01:04:53;-6.40;99.90
13229;DHT22;6680;53.220;10.402;2022-12-18T01:07:19;-6.40;99.90
13229;DHT22;6680;53.220;10.402;2022-12-18T01:09:46;-6.40;99.90
13229;DHT22;6680;53.220;10.402;2022-12-18T01:12:13;-6.40;99.90
13229;DHT22;6680;53.220;10.402;2022-12-18T01:14:39;-6.40;99.90
13229;DHT22;6680;53.220;10.402;2022-12-18T01:17:06;-6.40;99.90
13229;DHT22;6680;53.220;10.402;2022-12-18T01:19:33;-6.40;99.90
13229;DHT22;6680;53.220;10.402;2022-12-18T01:22:01;-6.50;99.90
13229;DHT22;6680;53.220;10.402;2022-12-18T01:24:28;-6.50;99.90
13229;DHT22;6680;53.220;10.402;2022-12-18T01:29:22;-6.50;99.90
13229;DHT22;6680;53.220;10.402;2022-12-18T01:31:49;-6.50;99.90
13229;DHT22;6680;53.220;10.402;2022-12-18T01:34:16;-6.50;99.90
13229;DHT22;6680;53.220;10.402;2022-12-18T01:36:42;-6.50;99.90
13229;DHT22;6680;53.220;10.402;2022-12-18T01:39:12;-6.50;99.90
13229;DHT22;6680;53.220;10.402;2022-12-18T01:41:39;-6.60;99.90
13229;DHT22;6680;53.220;10.402;2022-12-18T01:44:53;-6.60;99.90
13229;DHT22;6680;53.220;10.402;2022-12-18T01:47:23;-6.70;99.90
13229;DHT22;6680;53.220;10.402;2022-12-18T01:49:51;-6.70;99.90
13229;DHT22;6680;53.220;10.402;2022-12-18T01:52:18;-6.70;99.90
13229;DHT22;6680;53.220;10.402;2022-12-18T01:54:49;-6.70;99.90
13229;DHT22;6680;53.220;10.402;2022-12-18T01:57:17;-6.70;99.90
13229;DHT22;6680;53.220;10.402;2022-12-18T01:59:45;-6.80;99.90
13229;DHT22;6680;53.220;10.402;2022-12-18T02:02:14;-6.80;99.90
13229;DHT22;6680;53.220;10.402;2022-12-18T02:04:42;-6.80;99.90
13229;DHT22;6680;53.220;10.402;2022-12-18T02:07:14;-6.90;99.90
13229;DHT22;6680;53.220;10.402;2022-12-18T02:09:49;-6.80;99.90
13229;DHT22;6680;53.220;10.402;2022-12-18T02:12:20;-6.80;99.90
13229;DHT22;6680;53.220;10.402;2022-12-18T02:14:53;-6.80;99.90
13229;DHT22;6680;53.220;10.402;2022-12-18T02:17:23;-6.80;99.90
13229;DHT22;6680;53.220;10.402;2022-12-18T02:20:02;-6.90;99.90
13229;DHT22;6680;53.220;10.402;2022-12-18T02:22:39;-6.90;99.90
13229;DHT22;6680;53.220;10.402;2022-12-18T02:25:26;-6.90;99.90
13229;DHT22;6680;53.220;10.402;2022-12-18T02:27:59;-6.90;99.90
13229;DHT22;6680;53.220;10.402;2022-12-18T02:30:29;-6.90;99.90
13229;DHT22;6680;53.220;10.402;2022-12-18T02:32:59;-6.90;99.90
13229;DHT22;6680;53.220;10.402;2022-12-18T02:35:29;-6.90;99.90
13229;DHT22;6680;53.220;10.402;2022-12-18T02:37:57;-6.90;99.90
13229;DHT22;6680;53.220;10.402;2022-12-18T02:40:26;-6.90;99.90
13229;DHT22;6680;53.220;10.402;2022-12-18T02:45:22;-6.90;99.90
13229;DHT22;6680;53.220;10.402;2022-12-18T02:47:49;-6.90;99.90
13229;DHT22;6680;53.220;10.402;2022-12-18T02:50:19;-6.80;99.90
13229;DHT22;6680;53.220;10.402;2022-12-18T02:52:56;-6.90;99.90
13229;DHT22;6680;53.220;10.402;2022-12-18T02:55:34;-6.90;99.90
13229;DHT22;6680;53.220;10.402;2022-12-18T02:58:05;-6.90;99.90
13229;DHT22;6680;53.220;10.402;2022-12-18T03:00:39;-6.90;99.90
13229;DHT22;6680;53.220;10.402;2022-12-18T03:03:11;-6.90;99.90
13229;DHT22;6680;53.220;10.402;2022-12-18T03:05:44;-6.90;99.90
13229;DHT22;6680;53.220;10.402;2022-12-18T03:08:22;-6.90;99.90
13229;DHT22;6680;53.220;10.402;2022-12-18T03:10:54;-6.80;99.90
13229;DHT22;6680;53.220;10.402;2022-12-18T03:13:26;-6.80;99.90
13229;DHT22;6680;53.220;10.402;2022-12-18T03:15:56;-6.90;99.90
13229;DHT22;6680;53.220;10.402;2022-12-18T03:18:25;-6.90;99.90
13229;DHT22;6680;53.220;10.402;2022-12-18T03:20:58;-6.90;99.90
13229;DHT22;6680;53.220;10.402;2022-12-18T03:23:29;-6.80;99.90
13229;DHT22;6680;53.220;10.402;2022-12-18T03:26:01;-6.80;99.90
13229;DHT22;6680;53.220;10.402;2022-12-18T03:28:30;-6.80;99.90
13229;DHT22;6680;53.220;10.402;2022-12-18T03:31:00;-6.90;99.90
13229;DHT22;6680;53.220;10.402;2022-12-18T03:33:31;-6.90;99.90
13229;DHT22;6680;53.220;10.402;2022-12-18T03:36:01;-7.00;99.90
13229;DHT22;6680;53.220;10.402;2022-12-18T03:38:28;-7.00;99.90
13229;DHT22;6680;53.220;10.402;2022-12-18T03:41:00;-7.00;99.90
13229;DHT22;6680;53.220;10.402;2022-12-18T03:43:35;-6.60;99.90
13229;DHT22;6680;53.220;10.402;2022-12-18T03:46:09;-7.00;99.90
13229;DHT22;6680;53.220;10.402;2022-12-18T03:48:41;-7.10;99.90
13229;DHT22;6680;53.220;10.402;2022-12-18T03:51:13;-7.30;99.90
13229;DHT22;6680;53.220;10.402;2022-12-18T03:53:45;-7.10;99.90
13229;DHT22;6680;53.220;10.402;2022-12-18T03:56:13;-7.10;99.90
13229;DHT22;6680;53.220;10.402;2022-12-18T03:58:42;-6.80;99.90
13229;DHT22;6680;53.220;10.402;2022-12-18T04:01:13;-7.20;99.90
13229;DHT22;6680;53.220;10.402;2022-12-18T04:03:42;-7.20;99.90
13229;DHT22;6680;53.220;10.402;2022-12-18T04:06:11;-7.30;99.90
13229;DHT22;6680;53.220;10.402;2022-12-18T04:08:38;-7.40;99.90
13229;DHT22;6680;53.220;10.402;2022-12-18T04:11:05;-7.40;99.90
13229;DHT22;6680;53.220;10.402;2022-12-18T04:13:35;-7.40;99.90
13229;DHT22;6680;53.220;10.402;2022-12-18T04:16:02;-7.30;99.90
13229;DHT22;6680;53.220;10.402;2022-12-18T04:18:30;-7.40;99.90
13229;DHT22;6680;53.220;10.402;2022-12-18T04:20:57;-7.40;99.90
13229;DHT22;6680;53.220;10.402;2022-12-18T04:23:24;-7.40;99.90
13229;DHT22;6680;53.220;10.402;2022-12-18T04:25:50;-7.40;99.90
13229;DHT22;6680;53.220;10.402;2022-12-18T04:28:17;-7.40;99.90
13229;DHT22;6680;53.220;10.402;2022-12-18T04:30:43;-7.50;99.90
13229;DHT22;6680;53.220;10.402;2022-12-18T04:33:11;-7.50;99.90
13229;DHT22;6680;53.220;10.402;2022-12-18T04:35:41;-7.50;99.90
13229;DHT22;6680;53.220;10.402;2022-12-18T04:38:08;-7.60;99.90
13229;DHT22;6680;53.220;10.402;2022-12-18T04:40:36;-7.60;99.90
13229;DHT22;6680;53.220;10.402;2022-12-18T04:43:03;-7.60;99.90
13229;DHT22;6680;53.220;10.402;2022-12-18T04:45:30;-7.60;99.90
13229;DHT22;6680;53.220;10.402;2022-12-18T04:47:58;-7.60;99.90
13229;DHT22;6680;53.220;10.402;2022-12-18T04:50:25;-7.60;99.90
13229;DHT22;6680;53.220;10.402;2022-12-18T04:52:53;-7.60;99.90
13229;DHT22;6680;53.220;10.402;2022-12-18T04:55:20;-7.60;99.90
13229;DHT22;6680;53.220;10.402;2022-12-18T04:57:47;-7.60;99.90
13229;DHT22;6680;53.220;10.402;2022-12-18T05:00:15;-7.60;99.90
13229;DHT22;6680;53.220;10.402;2022-12-18T05:02:41;-7.60;99.90
13229;DHT22;6680;53.220;10.402;2022-12-18T05:05:08;-7.70;99.90
13229;DHT22;6680;53.220;10.402;2022-12-18T05:07:35;-7.70;99.90
13229;DHT22;6680;53.220;10.402;2022-12-18T05:10:11;-7.60;99.90
13229;DHT22;6680;53.220;10.402;2022-12-18T05:12:37;-7.70;99.90
13229;DHT22;6680;53.220;10.402;2022-12-18T05:15:23;-7.70;99.90
13229;DHT22;6680;53.220;10.402;2022-12-18T05:17:50;-7.60;99.90
13229;DHT22;6680;53.220;10.402;2022-12-18T05:20:17;-7.60;99.90
13229;DHT22;6680;53.220;10.402;2022-12-18T05:22:44;-7.60;99.90
13229;DHT22;6680;53.220;10.402;2022-12-18T05:25:12;-7.60;99.90
13229;DHT22;6680;53.220;10.402;2022-12-18T05:27:39;-7.60;99.90
13229;DHT22;6680;53.220;10.402;2022-12-18T05:30:07;-7.60;99.90
13229;DHT22;6680;53.220;10.402;2022-12-18T05:32:34;-7.70;99.90
13229;DHT22;6680;53.220;10.402;2022-12-18T05:35:00;-7.70;99.90
13229;DHT22;6680;53.220;10.402;2022-12-18T05:37:27;-7.80;99.90
13229;DHT22;6680;53.220;10.402;2022-12-18T05:39:54;-7.80;99.90
13229;DHT22;6680;53.220;10.402;2022-12-18T05:42:22;-7.80;99.90
13229;DHT22;6680;53.220;10.402;2022-12-18T05:44:48;-7.80;99.90
13229;DHT22;6680;53.220;10.402;2022-12-18T05:47:15;-7.80;99.90
13229;DHT22;6680;53.220;10.402;2022-12-18T05:49:42;-7.80;99.90
13229;DHT22;6680;53.220;10.402;2022-12-18T05:52:09;-7.80;99.90
13229;DHT22;6680;53.220;10.402;2022-12-18T05:54:35;-7.80;99.90
13229;DHT22;6680;53.220;10.402;2022-12-18T05:57:02;-7.80;99.90
13229;DHT22;6680;53.220;10.402;2022-12-18T05:59:30;-7.80;99.90
13229;DHT22;6680;53.220;10.402;2022-12-18T06:01:57;-7.90;99.90
13229;DHT22;6680;53.220;10.402;2022-12-18T06:04:24;-7.90;99.90
13229;DHT22;6680;53.220;10.402;2022-12-18T06:06:52;-7.90;99.90
13229;DHT22;6680;53.220;10.402;2022-12-18T06:09:19;-7.90;99.90
13229;DHT22;6680;53.220;10.402;2022-12-18T06:11:46;-7.80;99.90
13229;DHT22;6680;53.220;10.402;2022-12-18T06:14:15;-7.80;99.90
13229;DHT22;6680;53.220;10.402;2022-12-18T06:16:44;-7.90;99.90
13229;DHT22;6680;53.220;10.402;2022-12-18T06:19:15;-7.90;99.90
13229;DHT22;6680;53.220;10.402;2022-12-18T06:21:42;-7.80;99.90
13229;DHT22;6680;53.220;10.402;2022-12-18T06:24:09;-7.80;99.90
13229;DHT22;6680;53.220;10.402;2022-12-18T06:26:37;-7.60;99.90
13229;DHT22;6680;53.220;10.402;2022-12-18T06:29:03;-7.60;99.90
13229;DHT22;6680;53.220;10.402;2022-12-18T06:31:30;-7.60;99.90
13229;DHT22;6680;53.220;10.402;2022-12-18T06:33:59;-7.60;99.90
13229;DHT22;6680;53.220;10.402;2022-12-18T06:36:25;-7.80;99.90
13229;DHT22;6680;53.220;10.402;2022-12-18T06:38:52;-7.80;99.90
13229;DHT22;6680;53.220;10.402;2022-12-18T06:41:20;-7.90;99.90
13229;DHT22;6680;53.220;10.402;2022-12-18T06:43:47;-7.90;99.90
13229;DHT22;6680;53.220;10.402;2022-12-18T06:46:14;-7.90;99.90
13229;DHT22;6680;53.220;10.402;2022-12-18T06:48:40;-7.90;99.90
13229;DHT22;6680;53.220;10.402;2022-12-18T06:51:09;-7.90;99.90
13229;DHT22;6680;53.220;10.402;2022-12-18T06:53:35;-8.00;99.90
13229;DHT22;6680;53.220;10.402;2022-12-18T06:56:02;-8.00;99.90
13229;DHT22;6680;53.220;10.402;2022-12-18T06:58:29;-8.10;99.90
13229;DHT22;6680;53.220;10.402;2022-12-18T07:00:59;-8.10;99.90
13229;DHT22;6680;53.220;10.402;2022-12-18T07:03:26;-8.10;99.90
13229;DHT22;6680;53.220;10.402;2022-12-18T07:05:53;-8.10;99.90
13229;DHT22;6680;53.220;10.402;2022-12-18T07:08:21;-8.10;99.90
13229;DHT22;6680;53.220;10.402;2022-12-18T07:10:48;-8.20;99.90
13229;DHT22;6680;53.220;10.402;2022-12-18T07:13:15;-8.20;99.90
13229;DHT22;6680;53.220;10.402;2022-12-18T07:15:42;-8.20;99.90
13229;DHT22;6680;53.220;10.402;2022-12-18T07:18:11;-8.20;99.90
13229;DHT22;6680;53.220;10.402;2022-12-18T07:20:38;-8.20;99.90
13229;DHT22;6680;53.220;10.402;2022-12-18T07:23:05;-8.20;99.90
13229;DHT22;6680;53.220;10.402;2022-12-18T07:25:36;-8.20;99.90
13229;DHT22;6680;53.220;10.402;2022-12-18T07:28:03;-8.20;99.90
13229;DHT22;6680;53.220;10.402;2022-12-18T07:30:30;-8.20;99.90
13229;DHT22;6680;53.220;10.402;2022-12-18T07:32:57;-8.20;99.90
13229;DHT22;6680;53.220;10.402;2022-12-18T07:35:24;-8.00;99.90
13229;DHT22;6680;53.220;10.402;2022-12-18T07:37:50;-7.90;99.90
13229;DHT22;6680;53.220;10.402;2022-12-18T07:40:17;-8.00;99.90
13229;DHT22;6680;53.220;10.402;2022-12-18T07:42:45;-7.80;99.90
13229;DHT22;6680;53.220;10.402;2022-12-18T07:45:12;-7.80;99.90
13229;DHT22;6680;53.220;10.402;2022-12-18T07:47:39;-7.90;99.90
13229;DHT22;6680;53.220;10.402;2022-12-18T07:50:07;-7.90;99.90
13229;DHT22;6680;53.220;10.402;2022-12-18T07:52:34;-7.80;99.90
13229;DHT22;6680;53.220;10.402;2022-12-18T07:55:00;-7.70;99.90
13229;DHT22;6680;53.220;10.402;2022-12-18T07:57:27;-7.70;99.90
13229;DHT22;6680;53.220;10.402;2022-12-18T07:59:55;-7.70;99.90
13229;DHT22;6680;53.220;10.402;2022-12-18T08:02:22;-7.60;99.90
13229;DHT22;6680;53.220;10.402;2022-12-18T08:04:48;-7.60;99.90
13229;DHT22;6680;53.220;10.402;2022-12-18T08:07:15;-7.60;99.90
13229;DHT22;6680;53.220;10.402;2022-12-18T08:09:42;-7.60;99.90
13229;DHT22;6680;53.220;10.402;2022-12-18T08:12:08;-7.50;99.90
13229;DHT22;6680;53.220;10.402;2022-12-18T08:14:35;-7.50;99.90
13229;DHT22;6680;53.220;10.402;2022-12-18T08:17:03;-7.50;99.90
13229;DHT22;6680;53.220;10.402;2022-12-18T08:19:30;-7.30;99.90
13229;DHT22;6680;53.220;10.402;2022-12-18T08:21:57;-7.20;99.90
13229;DHT22;6680;53.220;10.402;2022-12-18T08:24:24;-7.30;99.90
13229;DHT22;6680;53.220;10.402;2022-12-18T08:26:51;-7.40;99.90
13229;DHT22;6680;53.220;10.402;2022-12-18T08:29:17;-7.30;99.90
13229;DHT22;6680;53.220;10.402;2022-12-18T08:31:44;-7.30;99.90
13229;DHT22;6680;53.220;10.402;2022-12-18T08:34:12;-7.30;99.90
13229;DHT22;6680;53.220;10.402;2022-12-18T08:36:40;-7.20;99.90
13229;DHT22;6680;53.220;10.402;2022-12-18T08:39:07;-7.20;99.90
13229;DHT22;6680;53.220;10.402;2022-12-18T08:41:33;-7.20;99.90
13229;DHT22;6680;53.220;10.402;2022-12-18T08:44:00;-7.30;99.90
13229;DHT22;6680;53.220;10.402;2022-12-18T08:46:44;-7.30;99.90
13229;DHT22;6680;53.220;10.402;2022-12-18T08:49:12;-7.30;99.90
13229;DHT22;6680;53.220;10.402;2022-12-18T08:51:40;-7.30;99.90
13229;DHT22;6680;53.220;10.402;2022-12-18T08:54:07;-7.30;99.90
13229;DHT22;6680;53.220;10.402;2022-12-18T08:56:34;-7.20;99.90
13229;DHT22;6680;53.220;10.402;2022-12-18T08:59:01;-7.10;99.90
13229;DHT22;6680;53.220;10.402;2022-12-18T09:01:27;-7.10;99.90
13229;DHT22;6680;53.220;10.402;2022-12-18T09:03:54;-7.10;99.90
13229;DHT22;6680;53.220;10.402;2022-12-18T09:06:23;-7.10;99.90
13229;DHT22;6680;53.220;10.402;2022-12-18T09:08:49;-7.10;99.90
13229;DHT22;6680;53.220;10.402;2022-12-18T09:11:21;-6.90;99.90
13229;DHT22;6680;53.220;10.402;2022-12-18T09:13:48;-7.00;99.90
13229;DHT22;6680;53.220;10.402;2022-12-18T09:16:15;-7.00;99.90
13229;DHT22;6680;53.220;10.402;2022-12-18T09:18:42;-6.90;99.90
13229;DHT22;6680;53.220;10.402;2022-12-18T09:21:10;-6.80;99.90
13229;DHT22;6680;53.220;10.402;2022-12-18T09:23:38;-6.80;99.90
13229;DHT22;6680;53.220;10.402;2022-12-18T09:26:05;-6.70;99.90
13229;DHT22;6680;53.220;10.402;2022-12-18T09:28:32;-6.80;99.90
13229;DHT22;6680;53.220;10.402;2022-12-18T09:31:02;-6.80;99.90
13229;DHT22;6680;53.220;10.402;2022-12-18T09:33:29;-6.70;99.90
13229;DHT22;6680;53.220;10.402;2022-12-18T09:35:56;-6.70;99.90
13229;DHT22;6680;53.220;10.402;2022-12-18T09:38:23;-6.60;99.90
13229;DHT22;6680;53.220;10.402;2022-12-18T09:40:53;-6.60;99.90
13229;DHT22;6680;53.220;10.402;2022-12-18T09:43:26;-6.60;99.90
13229;DHT22;6680;53.220;10.402;2022-12-18T09:45:58;-6.40;99.90
13229;DHT22;6680;53.220;10.402;2022-12-18T09:48:27;-6.40;99.90
13229;DHT22;6680;53.220;10.402;2022-12-18T09:50:58;-6.40;99.90
13229;DHT22;6680;53.220;10.402;2022-12-18T09:53:28;-6.20;99.90
13229;DHT22;6680;53.220;10.402;2022-12-18T09:56:00;-6.20;99.90
13229;DHT22;6680;53.220;10.402;2022-12-18T09:58:30;-6.20;99.90
13229;DHT22;6680;53.220;10.402;2022-12-18T10:00:58;-6.20;99.90
13229;DHT22;6680;53.220;10.402;2022-12-18T10:03:25;-6.10;99.90
13229;DHT22;6680;53.220;10.402;2022-12-18T10:05:59;-6.00;99.90
13229;DHT22;6680;53.220;10.402;2022-12-18T10:08:37;-6.00;99.90
13229;DHT22;6680;53.220;10.402;2022-12-18T10:11:24;-6.00;99.90
13229;DHT22;6680;53.220;10.402;2022-12-18T10:13:56;-5.90;99.90
13229;DHT22;6680;53.220;10.402;2022-12-18T10:16:29;-5.80;99.90
13229;DHT22;6680;53.220;10.402;2022-12-18T10:19:24;-5.70;99.90
13229;DHT22;6680;53.220;10.402;2022-12-18T10:21:59;-5.60;99.90
13229;DHT22;6680;53.220;10.402;2022-12-18T10:24:33;-5.60;99.90
13229;DHT22;6680;53.220;10.402;2022-12-18T10:27:12;-5.50;99.90
13229;DHT22;6680;53.220;10.402;2022-12-18T10:29:41;-5.40;99.90
13229;DHT22;6680;53.220;10.402;2022-12-18T10:32:14;-5.30;99.90
13229;DHT22;6680;53.220;10.402;2022-12-18T10:34:44;-5.30;99.90
13229;DHT22;6680;53.220;10.402;2022-12-18T10:37:15;-5.20;99.90
13229;DHT22;6680;53.220;10.402;2022-12-18T10:39:42;-5.10;99.90
13229;DHT22;6680;53.220;10.402;2022-12-18T10:42:16;-5.00;99.90
13229;DHT22;6680;53.220;10.402;2022-12-18T10:44:42;-5.00;99.90
13229;DHT22;6680;53.220;10.402;2022-12-18T10:47:12;-4.90;99.90
13229;DHT22;6680;53.220;10.402;2022-12-18T10:49:47;-4.80;99.90
13229;DHT22;6680;53.220;10.402;2022-12-18T10:52:17;-4.80;99.90
13229;DHT22;6680;53.220;10.402;2022-12-18T10:54:48;-4.80;99.90
13229;DHT22;6680;53.220;10.402;2022-12-18T10:57:33;-4.80;99.90
13229;DHT22;6680;53.220;10.402;2022-12-18T11:00:20;-4.80;99.90
13229;DHT22;6680;53.220;10.402;2022-12-18T11:02:48;-4.70;99.90
13229;DHT22;6680;53.220;10.402;2022-12-18T11:05:27;-4.70;99.90
13229;DHT22;6680;53.220;10.402;2022-12-18T11:07:54;-4.60;99.90
13229;DHT22;6680;53.220;10.402;2022-12-18T11:10:23;-4.60;99.90
13229;DHT22;6680;53.220;10.402;2022-12-18T11:12:53;-4.50;99.90
13229;DHT22;6680;53.220;10.402;2022-12-18T11:15:23;-4.50;99.90
13229;DHT22;6680;53.220;10.402;2022-12-18T11:17:51;-4.50;99.90
13229;DHT22;6680;53.220;10.402;2022-12-18T11:20:29;-4.40;99.90
13229;DHT22;6680;53.220;10.402;2022-12-18T11:23:00;-4.40;99.90
13229;DHT22;6680;53.220;10.402;2022-12-18T11:25:27;-4.40;99.90
13229;DHT22;6680;53.220;10.402;2022-12-18T11:27:57;-4.40;99.90
13229;DHT22;6680;53.220;10.402;2022-12-18T11:30:26;-4.30;99.90
13229;DHT22;6680;53.220;10.402;2022-12-18T11:32:56;-4.30;99.90
13229;DHT22;6680;53.220;10.402;2022-12-18T11:35:42;-4.30;99.90
13229;DHT22;6680;53.220;10.402;2022-12-18T11:38:20;-4.30;99.90
13229;DHT22;6680;53.220;10.402;2022-12-18T11:40:53;-4.20;99.90
13229;DHT22;6680;53.220;10.402;2022-12-18T11:43:27;-4.20;99.90
13229;DHT22;6680;53.220;10.402;2022-12-18T11:45:58;-4.10;99.90
13229;DHT22;6680;53.220;10.402;2022-12-18T11:48:28;-4.00;99.90
13229;DHT22;6680;53.220;10.402;2022-12-18T11:50:58;-3.80;99.90
13229;DHT22;6680;53.220;10.402;2022-12-18T11:53:26;-3.90;99.90
13229;DHT22;6680;53.220;10.402;2022-12-18T11:56:04;-3.80;99.90
13229;DHT22;6680;53.220;10.402;2022-12-18T11:58:46;-3.70;99.90
13229;DHT22;6680;53.220;10.402;2022-12-18T12:01:23;-3.80;99.90
13229;DHT22;6680;53.220;10.402;2022-12-18T12:04:08;-3.60;99.90
13229;DHT22;6680;53.220;10.402;2022-12-18T12:06:47;-3.50;99.90
13229;DHT22;6680;53.220;10.402;2022-12-18T12:09:23;-3.50;99.90
13229;DHT22;6680;53.220;10.402;2022-12-18T12:12:02;-3.40;99.90
13229;DHT22;6680;53.220;10.402;2022-12-18T12:14:42;-3.40;99.90
13229;DHT22;6680;53.220;10.402;2022-12-18T12:17:19;-3.40;99.90
13229;DHT22;6680;53.220;10.402;2022-12-18T12:19:53;-3.40;99.90
13229;DHT22;6680;53.220;10.402;2022-12-18T12:22:27;-3.40;99.90
13229;DHT22;6680;53.220;10.402;2022-12-18T12:25:11;-3.40;99.90
13229;DHT22;6680;53.220;10.402;2022-12-18T12:27:46;-3.40;99.90
13229;DHT22;6680;53.220;10.402;2022-12-18T12:30:20;-3.40;99.90
13229;DHT22;6680;53.220;10.402;2022-12-18T12:33:02;-3.30;99.90
13229;DHT22;6680;53.220;10.402;2022-12-18T12:35:37;-3.30;99.90
13229;DHT22;6680;53.220;10.402;2022-12-18T12:38:12;-3.30;99.90
13229;DHT22;6680;53.220;10.402;2022-12-18T12:40:46;-3.30;99.90
13229;DHT22;6680;53.220;10.402;2022-12-18T12:43:24;-3.30;99.90
13229;DHT22;6680;53.220;10.402;2022-12-18T12:45:55;-3.30;99.90
13229;DHT22;6680;53.220;10.402;2022-12-18T12:48:36;-3.30;99.90
13229;DHT22;6680;53.220;10.402;2022-12-18T12:51:11;-3.30;99.90
13229;DHT22;6680;53.220;10.402;2022-12-18T12:53:39;-3.20;99.90
13229;DHT22;6680;53.220;10.402;2022-12-18T12:56:08;-3.20;99.90
13229;DHT22;6680;53.220;10.402;2022-12-18T12:58:41;-3.20;99.90
13229;DHT22;6680;53.220;10.402;2022-12-18T13:01:18;-3.00;99.90
13229;DHT22;6680;53.220;10.402;2022-12-18T13:03:56;-3.00;99.90
13229;DHT22;6680;53.220;10.402;2022-12-18T13:06:33;-3.00;99.90
13229;DHT22;6680;53.220;10.402;2022-12-18T13:09:03;-2.90;99.90
13229;DHT22;6680;53.220;10.402;2022-12-18T13:11:34;-2.90;99.90
13229;DHT22;6680;53.220;10.402;2022-12-18T13:14:22;-2.90;99.90
13229;DHT22;6680;53.220;10.402;2022-12-18T13:16:50;-2.90;99.90
13229;DHT22;6680;53.220;10.402;2022-12-18T13:19:25;-2.80;99.90
13229;DHT22;6680;53.220;10.402;2022-12-18T13:21:54;-2.90;99.90
13229;DHT22;6680;53.220;10.402;2022-12-18T13:24:24;-2.90;99.90
13229;DHT22;6680;53.220;10.402;2022-12-18T13:26:51;-2.90;99.90
13229;DHT22;6680;53.220;10.402;2022-12-18T13:29:42;-3.00;99.90
13229;DHT22;6680;53.220;10.402;2022-12-18T13:32:24;-3.00;99.90
13229;DHT22;6680;53.220;10.402;2022-12-18T13:38:02;-3.00;99.90
13229;DHT22;6680;53.220;10.402;2022-12-18T13:40:56;-3.00;99.90
13229;DHT22;6680;53.220;10.402;2022-12-18T13:43:29;-3.10;99.90
13229;DHT22;6680;53.220;10.402;2022-12-18T13:46:18;-3.10;99.90
13229;DHT22;6680;53.220;10.402;2022-12-18T13:48:52;-3.20;99.90
13229;DHT22;6680;53.220;10.402;2022-12-18T13:51:21;-3.40;99.90
13229;DHT22;6680;53.220;10.402;2022-12-18T13:53:50;-3.40;99.90
13229;DHT22;6680;53.220;10.402;2022-12-18T13:56:21;-3.30;99.90
13229;DHT22;6680;53.220;10.402;2022-12-18T13:59:04;-3.30;99.90
13229;DHT22;6680;53.220;10.402;2022-12-18T14:01:31;-3.40;99.90
13229;DHT22;6680;53.220;10.402;2022-12-18T14:04:11;-3.50;99.90
13229;DHT22;6680;53.220;10.402;2022-12-18T14:06:38;-3.50;99.90
13229;DHT22;6680;53.220;10.402;2022-12-18T14:09:05;-3.60;99.90
13229;DHT22;6680;53.220;10.402;2022-12-18T14:11:32;-3.70;99.90
13229;DHT22;6680;53.220;10.402;2022-12-18T14:16:27;-3.80;99.90
13229;DHT22;6680;53.220;10.402;2022-12-18T14:18:56;-3.80;99.90
13229;DHT22;6680;53.220;10.402;2022-12-18T14:21:26;-3.80;99.90
13229;DHT22;6680;53.220;10.402;2022-12-18T14:24:05;-3.70;99.90
13229;DHT22;6680;53.220;10.402;2022-12-18T14:26:32;-3.70;99.90
13229;DHT22;6680;53.220;10.402;2022-12-18T14:29:00;-3.80;99.90
13229;DHT22;6680;53.220;10.402;2022-12-18T14:31:30;-3.60;99.90
13229;DHT22;6680;53.220;10.402;2022-12-18T14:33:56;-3.80;99.90
13229;DHT22;6680;53.220;10.402;2022-12-18T14:36:26;-3.80;99.90
13229;DHT22;6680;53.220;10.402;2022-12-18T14:38:55;-3.80;99.90
13229;DHT22;6680;53.220;10.402;2022-12-18T14:41:22;-3.80;99.90
13229;DHT22;6680;53.220;10.402;2022-12-18T14:43:51;-3.90;99.90
13229;DHT22;6680;53.220;10.402;2022-12-18T14:46:29;-3.90;99.90
13229;DHT22;6680;53.220;10.402;2022-12-18T14:48:59;-3.90;99.90
13229;DHT22;6680;53.220;10.402;2022-12-18T14:51:30;-3.90;99.90
13229;DHT22;6680;53.220;10.402;2022-12-18T14:53:58;-3.90;99.90
13229;DHT22;6680;53.220;10.402;2022-12-18T14:56:28;-3.90;99.90
13229;DHT22;6680;53.220;10.402;2022-12-18T14:58:57;-3.90;99.90
13229;DHT22;6680;53.220;10.402;2022-12-18T15:01:27;-4.00;99.90
13229;DHT22;6680;53.220;10.402;2022-12-18T15:03:55;-3.90;99.90
13229;DHT22;6680;53.220;10.402;2022-12-18T15:06:30;-3.90;99.90
13229;DHT22;6680;53.220;10.402;2022-12-18T15:08:57;-3.90;99.90
13229;DHT22;6680;53.220;10.402;2022-12-18T15:11:32;-3.90;99.90
13229;DHT22;6680;53.220;10.402;2022-12-18T15:14:00;-3.90;99.90
13229;DHT22;6680;53.220;10.402;2022-12-18T15:16:27;-3.90;99.90
13229;DHT22;6680;53.220;10.402;2022-12-18T15:18:53;-3.90;99.90
13229;DHT22;6680;53.220;10.402;2022-12-18T15:21:21;-3.90;99.90
13229;DHT22;6680;53.220;10.402;2022-12-18T15:23:50;-3.80;99.90
13229;DHT22;6680;53.220;10.402;2022-12-18T15:26:19;-3.90;99.90
13229;DHT22;6680;53.220;10.402;2022-12-18T15:28:48;-3.90;99.90
13229;DHT22;6680;53.220;10.402;2022-12-18T15:31:39;-3.90;99.90
13229;DHT22;6680;53.220;10.402;2022-12-18T15:34:18;-3.90;99.90
13229;DHT22;6680;53.220;10.402;2022-12-18T15:39:14;-4.00;99.90
13229;DHT22;6680;53.220;10.402;2022-12-18T15:41:41;-4.00;99.90
13229;DHT22;6680;53.220;10.402;2022-12-18T15:44:28;-4.00;99.90
13229;DHT22;6680;53.220;10.402;2022-12-18T15:46:54;-3.90;99.90
13229;DHT22;6680;53.220;10.402;2022-12-18T15:49:21;-4.00;99.90
13229;DHT22;6680;53.220;10.402;2022-12-18T15:51:49;-4.00;99.90
13229;DHT22;6680;53.220;10.402;2022-12-18T15:54:18;-3.90;99.90
13229;DHT22;6680;53.220;10.402;2022-12-18T15:59:49;-3.80;99.90
13229;DHT22;6680;53.220;10.402;2022-12-18T16:02:17;-3.80;99.90
13229;DHT22;6680;53.220;10.402;2022-12-18T16:04:44;-3.80;99.90